createdAt,value
2023-04-11T00:00:29.778Z,1001.44
2023-04-11T00:01:02.260Z,1001.42
2023-04-11T00:01:34.782Z,1001.43
2023-04-11T00:02:07.289Z,1001.40
2023-04-11T00:02:39.768Z,1001.38
2023-04-11T00:03:12.303Z,1001.44
2023-04-11T00:03:44.836Z,1001.45
2023-04-11T00:04:17.262Z,1001.45
2023-04-11T00:04:49.724Z,1001.45
2023-04-11T00:05:22.145Z,1001.44
2023-04-11T00:05:54.659Z,1001.45
2023-04-11T00:06:27.156Z,1001.43
2023-04-11T00:06:59.664Z,1001.44
2023-04-11T00:07:32.148Z,1001.52
2023-04-11T00:08:04.637Z,1001.49
2023-04-11T00:08:37.100Z,1001.48
2023-04-11T00:09:09.602Z,1001.50
2023-04-11T00:09:42.130Z,1001.50
2023-04-11T00:10:14.624Z,1001.52
2023-04-11T00:10:47.115Z,1001.51
2023-04-11T00:11:19.593Z,1001.48
2023-04-11T00:11:52.066Z,1001.50
2023-04-11T00:12:24.527Z,1001.47
2023-04-11T00:12:57.059Z,1001.46
2023-04-11T00:13:29.545Z,1001.43
2023-04-11T00:14:02.059Z,1001.42
2023-04-11T00:14:34.535Z,1001.38
2023-04-11T00:15:07.003Z,1001.35
2023-04-11T00:15:39.495Z,1001.32
2023-04-11T00:16:11.944Z,1001.32
2023-04-11T00:16:44.465Z,1001.35
2023-04-11T00:17:16.933Z,1001.24
2023-04-11T00:17:49.447Z,1001.29
2023-04-11T00:18:21.878Z,1001.28
2023-04-11T00:18:54.644Z,1001.28
2023-04-11T00:19:26.874Z,1001.30
2023-04-11T00:19:59.330Z,1001.30
2023-04-11T00:20:31.820Z,1001.30
2023-04-11T00:21:04.293Z,1001.34
2023-04-11T00:21:36.801Z,1001.33
2023-04-11T00:22:09.270Z,1001.34
2023-04-11T00:22:41.718Z,1001.38
2023-04-11T00:23:14.184Z,1001.38
2023-04-11T00:23:46.671Z,1001.38
2023-04-11T00:24:19.145Z,1001.34
2023-04-11T00:24:51.609Z,1001.33
2023-04-11T00:25:24.106Z,1001.28
2023-04-11T00:25:56.638Z,1001.28
2023-04-11T00:26:29.098Z,1001.27
2023-04-11T00:27:01.584Z,1001.28
2023-04-11T00:27:34.088Z,1001.25
2023-04-11T00:28:06.577Z,1001.25
2023-04-11T00:28:39.035Z,1001.26
2023-04-11T00:29:11.499Z,1001.28
2023-04-11T00:29:43.987Z,1001.28
2023-04-11T00:30:16.433Z,1001.29
2023-04-11T00:30:48.905Z,1001.26
2023-04-11T00:31:21.515Z,1001.28
2023-04-11T00:31:53.914Z,1001.25
2023-04-11T00:32:26.435Z,1001.24
2023-04-11T00:32:58.923Z,1001.21
2023-04-11T00:33:31.354Z,1001.19
2023-04-11T00:34:03.803Z,1001.22
2023-04-11T00:34:36.309Z,1001.13
2023-04-11T00:35:08.834Z,1001.16
2023-04-11T00:35:41.229Z,1001.13
2023-04-11T00:36:13.797Z,1001.14
2023-04-11T00:36:46.306Z,1001.12
2023-04-11T00:37:18.729Z,1001.13
2023-04-11T00:37:51.215Z,1001.11
2023-04-11T00:38:23.699Z,1001.11
2023-04-11T00:38:56.358Z,1001.05
2023-04-11T00:39:28.685Z,1001.09
2023-04-11T00:40:01.206Z,1001.12
2023-04-11T00:40:33.602Z,1001.12
2023-04-11T00:41:06.082Z,1001.11
2023-04-11T00:41:38.563Z,1001.13
2023-04-11T00:42:11.016Z,1001.11
2023-04-11T00:42:43.585Z,1001.15
2023-04-11T00:43:16.063Z,1001.14
2023-04-11T00:43:48.517Z,1001.06
2023-04-11T00:44:20.991Z,1001.09
2023-04-11T00:44:53.459Z,1001.05
2023-04-11T00:45:25.918Z,1001.07
2023-04-11T00:45:58.439Z,1001.09
2023-04-11T00:46:30.869Z,1001.08
2023-04-11T00:47:03.360Z,1001.09
2023-04-11T00:47:35.878Z,1001.13
2023-04-11T00:48:08.405Z,1001.09
2023-04-11T00:48:40.809Z,1001.11
2023-04-11T00:49:13.295Z,1001.06
2023-04-11T00:49:45.774Z,1001.05
2023-04-11T00:50:18.302Z,1001.01
2023-04-11T00:50:50.831Z,1001.04
2023-04-11T00:51:23.289Z,1001.02
2023-04-11T00:51:55.765Z,1001.06
2023-04-11T00:52:28.281Z,1001.05
2023-04-11T00:53:00.787Z,1001.03
2023-04-11T00:53:33.292Z,1001.11
2023-04-11T00:54:05.748Z,1001.07
2023-04-11T00:54:38.225Z,1001.10
2023-04-11T00:55:10.692Z,1001.07
2023-04-11T00:55:43.176Z,1001.10
2023-04-11T00:56:15.662Z,1001.08
2023-04-11T00:56:48.162Z,1001.09
2023-04-11T00:57:20.609Z,1001.05
2023-04-11T00:57:53.128Z,1001.08
2023-04-11T00:58:25.585Z,1001.09
2023-04-11T00:58:58.058Z,1001.11
2023-04-11T00:59:30.545Z,1001.06
2023-04-11T01:00:03.087Z,1001.08
2023-04-11T01:00:35.537Z,1001.09
2023-04-11T01:01:08.019Z,1001.10
2023-04-11T01:01:40.530Z,1001.09
2023-04-11T01:02:13.021Z,1001.08
2023-04-11T01:02:45.591Z,1001.07
2023-04-11T01:03:18.124Z,1001.04
2023-04-11T01:03:50.499Z,1001.06
2023-04-11T01:04:22.845Z,1001.03
2023-04-11T01:04:55.317Z,1001.02
2023-04-11T01:05:27.784Z,1001.02
2023-04-11T01:06:00.258Z,1001.04
2023-04-11T01:06:32.751Z,1001.02
2023-04-11T01:07:05.208Z,1001.04
2023-04-11T01:07:37.730Z,1001.02
2023-04-11T01:08:10.192Z,1001.06
2023-04-11T01:08:42.685Z,1001.03
2023-04-11T01:09:15.166Z,1000.97
2023-04-11T01:09:47.696Z,1000.99
2023-04-11T01:10:20.169Z,1001.00
2023-04-11T01:10:52.650Z,1001.00
2023-04-11T01:11:25.131Z,1000.98
2023-04-11T01:11:57.674Z,1001.01
2023-04-11T01:12:30.206Z,1001.01
2023-04-11T01:13:02.708Z,1001.01
2023-04-11T01:13:35.160Z,1001.06
2023-04-11T01:14:07.715Z,1001.02
2023-04-11T01:14:40.152Z,1001.05
2023-04-11T01:15:12.629Z,1001.03
2023-04-11T01:15:45.142Z,1001.01
2023-04-11T01:16:17.731Z,1000.99
2023-04-11T01:16:50.159Z,1000.99
2023-04-11T01:17:22.687Z,1001.01
2023-04-11T01:17:55.092Z,1001.03
2023-04-11T01:18:27.547Z,1001.07
2023-04-11T01:19:00.052Z,1001.02
2023-04-11T01:19:32.525Z,1001.05
2023-04-11T01:20:05.017Z,1001.09
2023-04-11T01:20:37.473Z,1001.07
2023-04-11T01:21:09.979Z,1001.08
2023-04-11T01:21:42.459Z,1001.14
2023-04-11T01:22:14.961Z,1001.11
2023-04-11T01:22:47.463Z,1001.10
2023-04-11T01:23:19.908Z,1001.08
2023-04-11T01:23:52.394Z,1001.11
2023-04-11T01:24:24.888Z,1001.02
2023-04-11T01:24:57.399Z,1001.06
2023-04-11T01:25:29.864Z,1001.06
2023-04-11T01:26:02.381Z,1001.04
2023-04-11T01:26:34.855Z,1000.95
2023-04-11T01:27:07.365Z,1000.95
2023-04-11T01:27:39.872Z,1001.01
2023-04-11T01:28:12.292Z,1001.03
2023-04-11T01:28:44.766Z,1001.02
2023-04-11T01:29:17.304Z,1000.97
2023-04-11T01:29:49.801Z,1001.01
2023-04-11T01:30:22.293Z,1000.98
2023-04-11T01:30:54.829Z,1000.98
2023-04-11T01:31:27.258Z,1001.05
2023-04-11T01:31:59.760Z,1001.07
2023-04-11T01:32:32.283Z,1001.03
2023-04-11T01:33:04.772Z,1001.03
2023-04-11T01:33:37.178Z,1001.08
2023-04-11T01:34:09.693Z,1001.03
2023-04-11T01:34:42.197Z,1001.01
2023-04-11T01:35:14.656Z,1001.03
2023-04-11T01:35:47.177Z,1001.02
2023-04-11T01:36:19.642Z,1000.98
2023-04-11T01:36:52.142Z,1000.99
2023-04-11T01:37:24.585Z,1000.97
2023-04-11T01:37:57.069Z,1001.04
2023-04-11T01:38:29.539Z,1001.02
2023-04-11T01:39:02.038Z,1000.99
2023-04-11T01:39:34.509Z,1001.07
2023-04-11T01:40:07.001Z,1001.07
2023-04-11T01:40:39.460Z,1001.02
2023-04-11T01:41:11.926Z,1001.00
2023-04-11T01:41:44.408Z,1000.99
2023-04-11T01:42:16.877Z,1000.96
2023-04-11T01:42:49.380Z,1000.98
2023-04-11T01:43:21.837Z,1000.97
2023-04-11T01:43:54.368Z,1000.95
2023-04-11T01:44:26.819Z,1000.96
2023-04-11T01:44:59.305Z,1000.95
2023-04-11T01:45:31.804Z,1000.96
2023-04-11T01:46:04.319Z,1000.99
2023-04-11T01:46:36.784Z,1001.03
2023-04-11T01:47:09.284Z,1000.96
2023-04-11T01:47:41.822Z,1000.95
2023-04-11T01:48:14.368Z,1000.97
2023-04-11T01:48:46.785Z,1000.96
2023-04-11T01:49:19.220Z,1000.97
2023-04-11T01:49:51.709Z,1001.00
2023-04-11T01:50:24.166Z,1001.01
2023-04-11T01:50:56.632Z,1000.99
2023-04-11T01:51:29.126Z,1000.99
2023-04-11T01:52:01.602Z,1001.00
2023-04-11T01:52:34.115Z,1001.03
2023-04-11T01:53:06.574Z,1000.98
2023-04-11T01:53:39.052Z,1001.01
2023-04-11T01:54:11.543Z,1001.01
2023-04-11T01:54:44.057Z,1001.00
2023-04-11T01:55:16.513Z,1001.00
2023-04-11T01:55:48.995Z,1001.01
2023-04-11T01:56:21.507Z,1001.01
2023-04-11T01:56:53.996Z,1001.00
2023-04-11T01:57:26.446Z,1000.97
2023-04-11T01:57:58.921Z,1000.98
2023-04-11T01:58:31.418Z,1000.98
2023-04-11T01:59:03.894Z,1000.95
2023-04-11T01:59:36.385Z,1000.94
2023-04-11T02:00:08.888Z,1000.94
2023-04-11T02:00:41.349Z,1000.95
2023-04-11T02:01:13.837Z,1000.93
2023-04-11T02:01:46.371Z,1000.95
2023-04-11T02:02:18.912Z,1000.90
2023-04-11T02:02:51.393Z,1000.83
2023-04-11T02:03:23.884Z,1000.85
2023-04-11T02:03:56.305Z,1000.84
2023-04-11T02:04:28.807Z,1000.86
2023-04-11T02:05:01.229Z,1000.87
2023-04-11T02:05:33.737Z,1000.86
2023-04-11T02:06:06.199Z,1000.89
2023-04-11T02:06:38.677Z,1000.91
2023-04-11T02:07:11.137Z,1000.86
2023-04-11T02:07:43.674Z,1000.90
2023-04-11T02:08:16.156Z,1000.89
2023-04-11T02:08:48.622Z,1000.92
2023-04-11T02:09:21.086Z,1000.93
2023-04-11T02:09:53.579Z,1000.92
2023-04-11T02:10:26.086Z,1000.98
2023-04-11T02:10:58.598Z,1000.98
2023-04-11T02:11:31.103Z,1001.04
2023-04-11T02:12:03.590Z,1001.09
2023-04-11T02:12:36.071Z,1001.16
2023-04-11T02:13:08.566Z,1001.27
2023-04-11T02:13:41.052Z,1001.27
2023-04-11T02:14:13.579Z,1001.25
2023-04-11T02:14:46.079Z,1001.33
2023-04-11T02:15:18.534Z,1001.20
2023-04-11T02:15:51.183Z,1001.15
2023-04-11T02:16:23.723Z,1001.17
2023-04-11T02:16:56.091Z,1001.20
2023-04-11T02:17:28.634Z,1001.02
2023-04-11T02:18:01.137Z,1001.23
2023-04-11T02:18:33.563Z,1001.21
2023-04-11T02:19:06.075Z,1001.17
2023-04-11T02:19:38.536Z,1001.06
2023-04-11T02:20:11.013Z,1001.11
2023-04-11T02:20:43.484Z,1001.14
2023-04-11T02:21:15.939Z,1001.19
2023-04-11T02:21:48.446Z,1001.14
2023-04-11T02:22:20.947Z,1001.14
2023-04-11T02:22:53.436Z,1001.08
2023-04-11T02:23:25.906Z,1001.13
2023-04-11T02:23:59.673Z,1001.12
2023-04-11T02:24:30.883Z,1001.10
2023-04-11T02:25:03.378Z,1001.09
2023-04-11T02:25:35.890Z,1001.10
2023-04-11T02:26:08.363Z,1001.08
2023-04-11T02:26:40.834Z,1001.08
2023-04-11T02:27:13.324Z,1001.11
2023-04-11T02:27:45.784Z,1001.07
2023-04-11T02:28:18.300Z,1001.09
2023-04-11T02:28:50.784Z,1001.07
2023-04-11T02:29:23.266Z,1001.09
2023-04-11T02:29:55.756Z,1001.09
2023-04-11T02:30:28.317Z,1001.07
2023-04-11T02:31:00.868Z,1001.04
2023-04-11T02:31:33.421Z,1001.04
2023-04-11T02:32:05.875Z,1001.04
2023-04-11T02:32:38.372Z,1001.06
2023-04-11T02:33:10.857Z,1001.01
2023-04-11T02:33:43.322Z,1001.00
2023-04-11T02:34:15.812Z,1001.03
2023-04-11T02:34:48.299Z,1001.04
2023-04-11T02:35:20.777Z,1001.01
2023-04-11T02:35:53.301Z,1000.99
2023-04-11T02:36:25.744Z,1000.99
2023-04-11T02:36:58.220Z,1001.03
2023-04-11T02:37:30.702Z,1000.98
2023-04-11T02:38:03.229Z,1001.04
2023-04-11T02:38:35.705Z,1001.06
2023-04-11T02:39:08.174Z,1001.07
2023-04-11T02:39:40.692Z,1001.08
2023-04-11T02:40:13.232Z,1001.08
2023-04-11T02:40:45.725Z,1001.08
2023-04-11T02:41:18.206Z,1001.03
2023-04-11T02:41:50.721Z,1001.06
2023-04-11T02:42:23.242Z,1001.12
2023-04-11T02:42:55.724Z,1001.06
2023-04-11T02:43:28.253Z,1001.10
2023-04-11T02:44:00.731Z,1001.08
2023-04-11T02:44:33.280Z,1001.08
2023-04-11T02:45:05.787Z,1001.16
2023-04-11T02:45:38.248Z,1001.11
2023-04-11T02:46:13.375Z,1001.16
2023-04-11T02:46:43.264Z,1001.12
2023-04-11T02:47:15.744Z,1001.17
2023-04-11T02:47:48.194Z,1001.14
2023-04-11T02:48:20.652Z,1001.18
2023-04-11T02:48:53.283Z,1001.17
2023-04-11T02:49:25.695Z,1001.18
2023-04-11T02:49:58.190Z,1001.16
2023-04-11T02:50:30.693Z,1001.16
2023-04-11T02:51:03.177Z,1001.15
2023-04-11T02:51:35.673Z,1001.13
2023-04-11T02:52:08.192Z,1001.14
2023-04-11T02:52:40.669Z,1001.12
2023-04-11T02:53:13.190Z,1001.13
2023-04-11T02:53:45.647Z,1001.13
2023-04-11T02:54:18.122Z,1001.13
2023-04-11T02:54:50.636Z,1001.12
2023-04-11T02:55:23.250Z,1001.10
2023-04-11T02:55:55.727Z,1001.07
2023-04-11T02:56:28.219Z,1001.08
2023-04-11T02:57:00.694Z,1001.11
2023-04-11T02:57:33.175Z,1001.16
2023-04-11T02:58:05.646Z,1001.15
2023-04-11T02:58:38.170Z,1001.14
2023-04-11T02:59:10.649Z,1001.14
2023-04-11T02:59:43.160Z,1001.19
2023-04-11T03:00:15.620Z,1001.10
2023-04-11T03:00:48.124Z,1001.19
2023-04-11T03:01:20.649Z,1001.23
2023-04-11T03:01:53.256Z,1001.16
2023-04-11T03:02:25.815Z,1001.21
2023-04-11T03:02:58.157Z,1001.24
2023-04-11T03:03:30.690Z,1001.23
2023-04-11T03:04:03.182Z,1001.29
2023-04-11T03:04:35.752Z,1001.26
2023-04-11T03:05:08.123Z,1001.19
2023-04-11T03:05:40.593Z,1001.13
2023-04-11T03:06:13.053Z,1001.12
2023-04-11T03:06:45.523Z,1001.11
2023-04-11T03:07:17.994Z,1001.14
2023-04-11T03:07:50.474Z,1001.10
2023-04-11T03:08:22.947Z,1001.13
2023-04-11T03:08:55.553Z,1001.17
2023-04-11T03:09:27.921Z,1001.12
2023-04-11T03:10:00.314Z,1001.13
2023-04-11T03:10:32.795Z,1001.13
2023-04-11T03:11:05.245Z,1001.09
2023-04-11T03:11:37.771Z,1001.07
2023-04-11T03:12:10.260Z,1001.10
2023-04-11T03:12:42.718Z,1001.10
2023-04-11T03:13:15.175Z,1001.02
2023-04-11T03:13:47.662Z,1001.11
2023-04-11T03:14:20.120Z,1001.14
2023-04-11T03:14:52.601Z,1001.11
2023-04-11T03:15:25.087Z,1001.16
2023-04-11T03:15:57.648Z,1001.10
2023-04-11T03:16:30.165Z,1001.09
2023-04-11T03:17:02.559Z,1001.12
2023-04-11T03:17:35.097Z,1001.10
2023-04-11T03:18:07.579Z,1001.11
2023-04-11T03:18:40.072Z,1001.17
2023-04-11T03:19:12.575Z,1001.12
2023-04-11T03:19:45.077Z,1001.13
2023-04-11T03:20:17.598Z,1001.13
2023-04-11T03:20:50.074Z,1001.15
2023-04-11T03:21:22.583Z,1001.11
2023-04-11T03:21:55.042Z,1001.10
2023-04-11T03:22:27.529Z,1001.10
2023-04-11T03:23:00.012Z,1001.15
2023-04-11T03:23:32.493Z,1001.08
2023-04-11T03:24:04.960Z,1001.13
2023-04-11T03:24:37.451Z,1001.15
2023-04-11T03:25:09.954Z,1001.21
2023-04-11T03:25:42.457Z,1001.10
2023-04-11T03:26:14.918Z,1001.12
2023-04-11T03:26:47.418Z,1001.09
2023-04-11T03:27:19.913Z,1001.13
2023-04-11T03:27:52.385Z,1001.09
2023-04-11T03:28:24.911Z,1001.13
2023-04-11T03:28:57.625Z,1001.20
2023-04-11T03:29:29.888Z,1001.18
2023-04-11T03:30:02.388Z,1001.16
2023-04-11T03:30:34.841Z,1001.16
2023-04-11T03:31:07.375Z,1001.17
2023-04-11T03:31:39.867Z,1001.17
2023-04-11T03:32:12.354Z,1001.19
2023-04-11T03:32:44.895Z,1001.16
2023-04-11T03:33:17.338Z,1001.20
2023-04-11T03:33:49.855Z,1001.18
2023-04-11T03:34:22.298Z,1001.17
2023-04-11T03:34:54.789Z,1001.16
2023-04-11T03:35:27.283Z,1001.14
2023-04-11T03:35:59.759Z,1001.23
2023-04-11T03:36:32.227Z,1001.22
2023-04-11T03:37:04.713Z,1001.21
2023-04-11T03:37:37.174Z,1001.16
2023-04-11T03:38:09.662Z,1001.20
2023-04-11T03:38:42.201Z,1001.16
2023-04-11T03:39:14.685Z,1001.17
2023-04-11T03:39:47.167Z,1001.18
2023-04-11T03:40:19.662Z,1001.22
2023-04-11T03:40:52.157Z,1001.23
2023-04-11T03:41:24.650Z,1001.23
2023-04-11T03:41:57.155Z,1001.21
2023-04-11T03:42:29.631Z,1001.24
2023-04-11T03:43:03.817Z,1001.20
2023-04-11T03:43:34.560Z,1001.22
2023-04-11T03:44:07.054Z,1001.23
2023-04-11T03:44:39.528Z,1001.20
2023-04-11T03:45:12.037Z,1001.24
2023-04-11T03:45:44.493Z,1001.25
2023-04-11T03:46:17.003Z,1001.22
2023-04-11T03:46:49.489Z,1001.23
2023-04-11T03:47:21.968Z,1001.22
2023-04-11T03:47:54.478Z,1001.24
2023-04-11T03:48:26.943Z,1001.25
2023-04-11T03:48:59.430Z,1001.27
2023-04-11T03:49:31.930Z,1001.30
2023-04-11T03:50:04.417Z,1001.28
2023-04-11T03:50:36.912Z,1001.30
2023-04-11T03:51:09.417Z,1001.36
2023-04-11T03:51:41.936Z,1001.37
2023-04-11T03:52:14.438Z,1001.30
2023-04-11T03:52:46.917Z,1001.32
2023-04-11T03:53:19.460Z,1001.29
2023-04-11T03:53:51.928Z,1001.30
2023-04-11T03:54:24.405Z,1001.29
2023-04-11T03:54:56.903Z,1001.30
2023-04-11T03:55:29.372Z,1001.29
2023-04-11T03:56:01.908Z,1001.29
2023-04-11T03:56:34.370Z,1001.30
2023-04-11T03:57:06.906Z,1001.35
2023-04-11T03:57:39.377Z,1001.31
2023-04-11T03:58:11.880Z,1001.37
2023-04-11T03:58:44.325Z,1001.34
2023-04-11T03:59:16.851Z,1001.32
2023-04-11T03:59:49.323Z,1001.33
2023-04-11T04:00:21.822Z,1001.39
2023-04-11T04:00:54.307Z,1001.38
2023-04-11T04:01:26.766Z,1001.43
2023-04-11T04:01:59.328Z,1001.38
2023-04-11T04:02:31.926Z,1001.37
2023-04-11T04:03:04.476Z,1001.39
2023-04-11T04:03:37.058Z,1001.38
2023-04-11T04:04:09.417Z,1001.38
2023-04-11T04:04:41.914Z,1001.41
2023-04-11T04:05:14.322Z,1001.42
2023-04-11T04:05:46.783Z,1001.39
2023-04-11T04:06:19.218Z,1001.43
2023-04-11T04:06:51.785Z,1001.42
2023-04-11T04:07:24.283Z,1001.43
2023-04-11T04:07:56.811Z,1001.45
2023-04-11T04:08:29.340Z,1001.48
2023-04-11T04:09:01.940Z,1001.45
2023-04-11T04:09:34.458Z,1001.46
2023-04-11T04:10:06.978Z,1001.48
2023-04-11T04:10:39.601Z,1001.43
2023-04-11T04:11:12.125Z,1001.44
2023-04-11T04:11:44.587Z,1001.41
2023-04-11T04:12:17.075Z,1001.43
2023-04-11T04:12:49.554Z,1001.43
2023-04-11T04:13:22.055Z,1001.47
2023-04-11T04:13:54.787Z,1001.38
2023-04-11T04:14:27.006Z,1001.43
2023-04-11T04:14:59.500Z,1001.43
2023-04-11T04:15:32.020Z,1001.41
2023-04-11T04:16:04.538Z,1001.37
2023-04-11T04:16:36.999Z,1001.49
2023-04-11T04:17:16.517Z,1001.44
2023-04-11T04:17:49.054Z,1001.45
2023-04-11T04:18:21.487Z,1001.43
2023-04-11T04:18:53.957Z,1001.37
2023-04-11T04:19:26.444Z,1001.44
2023-04-11T04:19:58.954Z,1001.46
2023-04-11T04:20:31.486Z,1001.46
2023-04-11T04:21:03.978Z,1001.45
2023-04-11T04:21:36.456Z,1001.46
2023-04-11T04:22:08.914Z,1001.47
2023-04-11T04:22:41.392Z,1001.48
2023-04-11T04:23:13.875Z,1001.47
2023-04-11T04:23:46.386Z,1001.50
2023-04-11T04:24:18.865Z,1001.48
2023-04-11T04:24:51.352Z,1001.46
2023-04-11T04:25:25.523Z,1001.51
2023-04-11T04:25:56.327Z,1001.48
2023-04-11T04:26:28.788Z,1001.53
2023-04-11T04:27:01.293Z,1001.46
2023-04-11T04:27:33.745Z,1001.50
2023-04-11T04:28:06.250Z,1001.52
2023-04-11T04:28:38.717Z,1001.60
2023-04-11T04:29:11.227Z,1001.52
2023-04-11T04:29:43.703Z,1001.55
2023-04-11T04:30:16.210Z,1001.54
2023-04-11T04:30:48.700Z,1001.64
2023-04-11T04:31:21.235Z,1001.65
2023-04-11T04:31:53.776Z,1001.62
2023-04-11T04:32:26.277Z,1001.65
2023-04-11T04:32:58.824Z,1001.57
2023-04-11T04:33:31.236Z,1001.57
2023-04-11T04:34:03.732Z,1001.61
2023-04-11T04:34:36.201Z,1001.57
2023-04-11T04:35:08.680Z,1001.62
2023-04-11T04:35:41.160Z,1001.62
2023-04-11T04:36:13.647Z,1001.70
2023-04-11T04:36:46.139Z,1001.61
2023-04-11T04:37:18.619Z,1001.65
2023-04-11T04:37:51.094Z,1001.70
2023-04-11T04:38:23.569Z,1001.70
2023-04-11T04:38:56.075Z,1001.68
2023-04-11T04:39:28.567Z,1001.67
2023-04-11T04:40:01.048Z,1001.77
2023-04-11T04:40:33.523Z,1001.76
2023-04-11T04:41:06.051Z,1001.70
2023-04-11T04:41:38.538Z,1001.72
2023-04-11T04:42:11.077Z,1001.58
2023-04-11T04:42:43.562Z,1001.57
2023-04-11T04:43:16.050Z,1001.61
2023-04-11T04:43:48.547Z,1001.61
2023-04-11T04:44:21.024Z,1001.65
2023-04-11T04:44:53.538Z,1001.64
2023-04-11T04:45:26.001Z,1001.68
2023-04-11T04:45:58.617Z,1001.69
2023-04-11T04:46:30.973Z,1001.70
2023-04-11T04:47:03.456Z,1001.72
2023-04-11T04:47:35.942Z,1001.66
2023-04-11T04:48:08.518Z,1001.69
2023-04-11T04:48:40.922Z,1001.73
2023-04-11T04:49:13.408Z,1001.74
2023-04-11T04:49:45.929Z,1001.77
2023-04-11T04:50:18.377Z,1001.81
2023-04-11T04:50:50.885Z,1001.93
2023-04-11T04:51:23.387Z,1001.88
2023-04-11T04:51:55.899Z,1001.78
2023-04-11T04:52:28.378Z,1001.79
2023-04-11T04:53:00.828Z,1001.80
2023-04-11T04:53:33.304Z,1001.83
2023-04-11T04:54:05.787Z,1001.77
2023-04-11T04:54:38.353Z,1001.83
2023-04-11T04:55:10.869Z,1001.82
2023-04-11T04:55:43.397Z,1001.82
2023-04-11T04:56:15.855Z,1001.84
2023-04-11T04:56:48.403Z,1001.86
2023-04-11T04:57:20.827Z,1001.85
2023-04-11T04:57:53.319Z,1001.93
2023-04-11T04:58:25.793Z,1001.92
2023-04-11T04:58:58.312Z,1001.90
2023-04-11T04:59:30.772Z,1001.91
2023-04-11T05:00:03.286Z,1002.05
2023-04-11T05:00:35.762Z,1002.03
2023-04-11T05:01:08.308Z,1002.04
2023-04-11T05:01:40.832Z,1002.03
2023-04-11T05:02:13.321Z,1002.07
2023-04-11T05:02:45.823Z,1002.04
2023-04-11T05:03:18.296Z,1002.11
2023-04-11T05:03:50.764Z,1002.04
2023-04-11T05:04:23.316Z,1002.11
2023-04-11T05:04:55.595Z,1002.17
2023-04-11T05:05:28.068Z,1002.10
2023-04-11T05:06:00.562Z,1002.09
2023-04-11T05:06:33.065Z,1002.05
2023-04-11T05:07:05.569Z,1002.10
2023-04-11T05:07:38.018Z,1002.12
2023-04-11T05:08:10.512Z,1002.11
2023-04-11T05:08:43.006Z,1002.14
2023-04-11T05:09:15.506Z,1002.14
2023-04-11T05:09:48.034Z,1002.17
2023-04-11T05:10:20.541Z,1002.18
2023-04-11T05:10:53.033Z,1002.13
2023-04-11T05:11:25.516Z,1002.17
2023-04-11T05:11:58.012Z,1002.16
2023-04-11T05:12:30.535Z,1002.20
2023-04-11T05:13:03.029Z,1002.18
2023-04-11T05:13:35.506Z,1002.16
2023-04-11T05:14:08.011Z,1002.18
2023-04-11T05:14:40.493Z,1002.25
2023-04-11T05:15:13.003Z,1002.23
2023-04-11T05:15:45.509Z,1002.32
2023-04-11T05:16:18.075Z,1002.33
2023-04-11T05:16:50.495Z,1002.30
2023-04-11T05:17:24.705Z,1002.40
2023-04-11T05:17:55.527Z,1002.36
2023-04-11T05:18:27.920Z,1002.38
2023-04-11T05:19:00.430Z,1002.39
2023-04-11T05:19:32.880Z,1002.39
2023-04-11T05:20:05.378Z,1002.36
2023-04-11T05:20:37.912Z,1002.38
2023-04-11T05:21:10.410Z,1002.39
2023-04-11T05:21:42.890Z,1002.40
2023-04-11T05:22:15.386Z,1002.47
2023-04-11T05:22:48.226Z,1002.52
2023-04-11T05:23:20.435Z,1002.51
2023-04-11T05:23:52.943Z,1002.43
2023-04-11T05:24:25.437Z,1002.38
2023-04-11T05:24:57.942Z,1002.39
2023-04-11T05:25:30.404Z,1002.38
2023-04-11T05:26:02.878Z,1002.37
2023-04-11T05:26:35.339Z,1002.33
2023-04-11T05:27:07.853Z,1002.37
2023-04-11T05:27:40.364Z,1002.43
2023-04-11T05:28:12.850Z,1002.42
2023-04-11T05:28:45.338Z,1002.39
2023-04-11T05:29:17.898Z,1002.34
2023-04-11T05:29:50.438Z,1002.34
2023-04-11T05:30:22.956Z,1002.38
2023-04-11T05:30:55.442Z,1002.42
2023-04-11T05:31:27.908Z,1002.42
2023-04-11T05:32:00.385Z,1002.38
2023-04-11T05:32:32.928Z,1002.41
2023-04-11T05:33:05.395Z,1002.37
2023-04-11T05:33:37.857Z,1002.42
2023-04-11T05:34:10.347Z,1002.39
2023-04-11T05:34:42.825Z,1002.35
2023-04-11T05:35:15.357Z,1002.34
2023-04-11T05:35:47.891Z,1002.34
2023-04-11T05:36:20.291Z,1002.34
2023-04-11T05:36:52.774Z,1002.35
2023-04-11T05:37:25.253Z,1002.34
2023-04-11T05:37:57.774Z,1002.34
2023-04-11T05:38:30.258Z,1002.35
2023-04-11T05:39:02.752Z,1002.36
2023-04-11T05:39:35.258Z,1002.34
2023-04-11T05:40:07.776Z,1002.38
2023-04-11T05:40:40.269Z,1002.39
2023-04-11T05:41:12.767Z,1002.37
2023-04-11T05:41:45.235Z,1002.37
2023-04-11T05:42:17.753Z,1002.40
2023-04-11T05:42:50.221Z,1002.41
2023-04-11T05:43:22.715Z,1002.44
2023-04-11T05:43:55.455Z,1002.45
2023-04-11T05:44:27.647Z,1002.46
2023-04-11T05:45:00.213Z,1002.47
2023-04-11T05:45:32.652Z,1002.49
2023-04-11T05:46:05.145Z,1002.51
2023-04-11T05:46:37.601Z,1002.53
2023-04-11T05:47:10.044Z,1002.54
2023-04-11T05:47:42.527Z,1002.54
2023-04-11T05:48:16.038Z,1002.53
2023-04-11T05:48:47.483Z,1002.54
2023-04-11T05:49:20.101Z,1002.53
2023-04-11T05:49:52.614Z,1002.55
2023-04-11T05:50:25.105Z,1002.59
2023-04-11T05:50:57.617Z,1002.58
2023-04-11T05:51:30.083Z,1002.58
2023-04-11T05:52:02.587Z,1002.59
2023-04-11T05:52:35.062Z,1002.58
2023-04-11T05:53:07.540Z,1002.58
2023-04-11T05:53:40.009Z,1002.57
2023-04-11T05:54:12.469Z,1002.57
2023-04-11T05:54:44.991Z,1002.60
2023-04-11T05:55:17.556Z,1002.59
2023-04-11T05:55:50.037Z,1002.61
2023-04-11T05:56:22.560Z,1002.61
2023-04-11T05:56:55.093Z,1002.61
2023-04-11T05:57:27.594Z,1002.59
2023-04-11T05:58:00.105Z,1002.60
2023-04-11T05:58:32.591Z,1002.60
2023-04-11T05:59:05.071Z,1002.58
2023-04-11T05:59:37.555Z,1002.60
2023-04-11T06:00:10.098Z,1002.66
2023-04-11T06:00:42.593Z,1002.68
2023-04-11T06:01:15.123Z,1002.65
2023-04-11T06:01:47.641Z,1002.63
2023-04-11T06:02:20.199Z,1002.66
2023-04-11T06:02:52.636Z,1002.66
2023-04-11T06:03:25.171Z,1002.65
2023-04-11T06:03:58.153Z,1002.65
2023-04-11T06:04:30.102Z,1002.68
2023-04-11T06:05:02.547Z,1002.70
2023-04-11T06:05:35.035Z,1002.68
2023-04-11T06:06:07.483Z,1002.68
2023-04-11T06:06:39.960Z,1002.65
2023-04-11T06:07:12.456Z,1002.65
2023-04-11T06:07:44.939Z,1002.64
2023-04-11T06:08:17.423Z,1002.62
2023-04-11T06:08:49.914Z,1002.62
2023-04-11T06:09:22.374Z,1002.58
2023-04-11T06:09:54.844Z,1002.60
2023-04-11T06:10:27.355Z,1002.61
2023-04-11T06:10:59.856Z,1002.64
2023-04-11T06:11:32.328Z,1002.64
2023-04-11T06:12:04.798Z,1002.67
2023-04-11T06:12:37.284Z,1002.67
2023-04-11T06:13:09.783Z,1002.71
2023-04-11T06:13:42.301Z,1002.72
2023-04-11T06:14:14.764Z,1002.75
2023-04-11T06:14:47.258Z,1002.75
2023-04-11T06:15:19.723Z,1002.76
2023-04-11T06:15:52.272Z,1002.74
2023-04-11T06:16:24.791Z,1002.73
2023-04-11T06:16:57.176Z,1002.71
2023-04-11T06:17:29.709Z,1002.68
2023-04-11T06:18:02.196Z,1002.70
2023-04-11T06:18:34.617Z,1002.71
2023-04-11T06:19:07.109Z,1002.72
2023-04-11T06:19:39.585Z,1002.73
2023-04-11T06:20:12.082Z,1002.76
2023-04-11T06:20:44.564Z,1002.80
2023-04-11T06:21:17.056Z,1002.75
2023-04-11T06:21:49.538Z,1002.79
2023-04-11T06:22:21.992Z,1002.76
2023-04-11T06:22:54.457Z,1002.79
2023-04-11T06:23:26.957Z,1002.78
2023-04-11T06:23:59.477Z,1002.83
2023-04-11T06:24:31.967Z,1002.77
2023-04-11T06:25:04.445Z,1002.79
2023-04-11T06:25:36.900Z,1002.79
2023-04-11T06:26:11.323Z,1002.80
2023-04-11T06:26:41.867Z,1002.79
2023-04-11T06:27:14.373Z,1002.76
2023-04-11T06:27:46.875Z,1002.81
2023-04-11T06:28:19.373Z,1002.81
2023-04-11T06:28:51.874Z,1002.81
2023-04-11T06:29:24.352Z,1002.79
2023-04-11T06:29:56.843Z,1002.79
2023-04-11T06:30:29.365Z,1002.78
2023-04-11T06:31:01.867Z,1002.78
2023-04-11T06:31:34.378Z,1002.82
2023-04-11T06:32:06.741Z,1002.82
2023-04-11T06:32:39.270Z,1002.78
2023-04-11T06:33:11.840Z,1002.81